Time;durP1;ratioP1;P1;durP2;ratioP2;P2;SDS_P1;SDS_P2;PMS_P1;PMS_P2;Temp;Humidity;BMP_temperature;BMP_pressure;BME280_temperature;BME280_humidity;BME280_pressure;Samples;Min_cycle;Max_cycle;Signal;HPM_P1;HPM_P2
2023/06/14 00:00:11;;;;;;;18.98;13.70;;;;;;;18.51;100.00;100180.22;5097315;28;20028;-75
2023/06/14 00:02:38;;;;;;;19.75;14.32;;;;;;;18.49;100.00;100174.13;5098763;28;20361;-75
2023/06/14 00:05:07;;;;;;;17.80;12.75;;;;;;;18.50;100.00;100170.16;5105147;28;20032;-75
2023/06/14 00:07:38;;;;;;;20.70;14.70;;;;;;;18.43;100.00;100176.38;5112768;28;20117;-75
2023/06/14 00:10:04;;;;;;;17.83;13.73;;;;;;;18.44;100.00;100174.38;5101064;28;20393;-75
2023/06/14 00:12:30;;;;;;;19.58;13.90;;;;;;;18.36;100.00;100178.97;5102556;28;20039;-75
2023/06/14 00:14:56;;;;;;;18.23;13.10;;;;;;;18.36;100.00;100175.31;5105058;28;20484;-75
2023/06/14 00:17:22;;;;;;;19.27;14.35;;;;;;;18.35;100.00;100174.50;5101016;28;20020;-75
2023/06/14 00:19:48;;;;;;;20.13;14.07;;;;;;;18.31;100.00;100177.22;5115715;28;20032;-75
2023/06/14 00:22:13;;;;;;;20.63;13.73;;;;;;;18.28;100.00;100177.94;5105099;28;20032;-75
2023/06/14 00:24:38;;;;;;;20.00;12.93;;;;;;;18.27;100.00;100172.66;5100887;28;20028;-75
2023/06/14 00:27:05;;;;;;;19.38;12.82;;;;;;;18.26;100.00;100171.84;5100414;28;20396;-75
2023/06/14 00:29:30;;;;;;;18.85;13.52;;;;;;;18.23;100.00;100177.34;5114607;28;20028;-75
2023/06/14 00:31:56;;;;;;;23.02;15.00;;;;;;;18.22;100.00;100176.56;5100779;28;20043;-75
2023/06/14 00:34:21;;;;;;;21.70;15.07;;;;;;;18.15;100.00;100169.88;5082700;28;20032;-75
2023/06/14 00:36:47;;;;;;;22.63;14.40;;;;;;;18.15;100.00;100172.69;5082418;28;20074;-75
2023/06/14 00:39:12;;;;;;;22.80;15.40;;;;;;;18.11;100.00;100171.75;5114169;28;20020;-75
2023/06/14 00:41:39;;;;;;;20.58;15.45;;;;;;;18.07;100.00;100175.25;5082122;28;20085;-75
2023/06/14 00:44:05;;;;;;;20.67;14.45;;;;;;;18.03;100.00;100168.72;5082231;28;20032;-75
2023/06/14 00:46:30;;;;;;;19.73;13.60;;;;;;;18.01;100.00;100176.69;5100206;28;20476;-76
2023/06/14 00:48:56;;;;;;;21.00;14.48;;;;;;;17.97;100.00;100175.75;5106166;28;20067;-75
2023/06/14 00:51:21;;;;;;;20.80;14.85;;;;;;;17.95;100.00;100171.66;5089131;28;20031;-75
2023/06/14 00:53:47;;;;;;;20.08;14.50;;;;;;;17.91;100.00;100177.13;5099352;28;20032;-75
2023/06/14 00:56:14;;;;;;;22.83;15.00;;;;;;;17.88;100.00;100163.81;5099863;28;20024;-75
2023/06/14 00:58:40;;;;;;;24.85;15.82;;;;;;;17.84;100.00;100172.13;5081915;28;20047;-75
2023/06/14 01:01:06;;;;;;;22.75;16.33;;;;;;;17.82;100.00;100170.81;5082187;28;20059;-75
2023/06/14 01:03:32;;;;;;;21.55;15.00;;;;;;;17.78;100.00;100172.69;5086240;28;20419;-75
2023/06/14 01:06:14;;;;;;;24.40;15.18;;;;;;;17.75;100.00;100167.78;5100115;28;20130;-76
2023/06/14 01:08:56;;;;;;;23.95;15.50;;;;;;;17.73;100.00;100170.09;5096855;28;20035;-76
2023/06/14 01:11:25;;;;;;;22.23;16.02;;;;;;;17.71;100.00;100161.19;5109907;28;20039;-75
2023/06/14 01:13:50;;;;;;;22.98;16.13;;;;;;;17.70;100.00;100166.00;5067726;28;20392;-76
2023/06/14 01:16:15;;;;;;;23.08;15.10;;;;;;;17.66;100.00;100162.25;5071492;28;20032;-76
2023/06/14 01:18:41;;;;;;;22.98;15.50;;;;;;;17.60;100.00;100170.06;5087258;28;20094;-76
2023/06/14 01:21:22;;;;;;;21.75;15.98;;;;;;;17.56;100.00;100171.97;5095035;28;20389;-75
2023/06/14 01:23:52;;;;;;;22.77;16.50;;;;;;;17.52;100.00;100171.00;5070710;28;20032;-75
2023/06/14 01:26:21;;;;;;;25.08;17.15;;;;;;;17.47;100.00;100165.66;5112708;28;20032;-75
2023/06/14 01:28:50;;;;;;;24.08;16.45;;;;;;;17.45;100.00;100167.16;5110392;28;20047;-75
2023/06/14 01:31:21;;;;;;;25.05;16.80;;;;;;;17.43;100.00;100167.50;5085462;28;20469;-75
2023/06/14 01:33:47;;;;;;;23.75;16.38;;;;;;;17.40;100.00;100166.19;5090233;28;20068;-75
2023/06/14 01:36:13;;;;;;;24.33;16.88;;;;;;;17.41;100.00;100170.66;5064820;28;20036;-75
2023/06/14 01:38:39;;;;;;;22.42;16.13;;;;;;;17.35;100.00;100168.41;5076532;28;20065;-75
2023/06/14 01:41:04;;;;;;;24.25;17.20;;;;;;;17.36;100.00;100172.88;5066104;28;20032;-75
2023/06/14 01:43:30;;;;;;;22.65;16.05;;;;;;;17.32;100.00;100171.91;5081295;28;20051;-75
2023/06/14 01:45:56;;;;;;;28.13;19.48;;;;;;;17.25;100.00;100171.69;5064273;28;20036;-75
2023/06/14 01:48:22;;;;;;;30.48;18.38;;;;;;;17.23;100.00;100168.41;5081053;28;20055;-75
2023/06/14 01:50:49;;;;;;;23.83;17.35;;;;;;;17.25;100.00;100171.69;5083054;28;20028;-75
2023/06/14 01:53:15;;;;;;;26.92;17.85;;;;;;;17.20;100.00;100170.72;5119713;28;20499;-75
2023/06/14 01:55:43;;;;;;;24.52;17.83;;;;;;;17.17;100.00;100174.22;5100184;28;20105;-75
2023/06/14 01:58:08;;;;;;;27.77;18.95;;;;;;;17.14;100.00;100166.50;5031816;28;20123;-75
2023/06/14 02:00:34;;;;;;;25.02;17.33;;;;;;;17.12;100.00;100163.22;5098930;28;20067;-75
2023/06/14 02:03:00;;;;;;;29.08;18.33;;;;;;;17.12;100.00;100166.03;5084274;28;20077;-75
2023/06/14 02:05:26;;;;;;;26.55;17.67;;;;;;;17.10;100.00;100162.75;5080905;28;20467;-75
2023/06/14 02:07:53;;;;;;;26.58;18.05;;;;;;;17.10;100.00;100159.94;5084191;28;20024;-75
2023/06/14 02:10:18;;;;;;;29.70;18.73;;;;;;;17.07;100.00;100160.63;5084260;28;20099;-75
2023/06/14 02:12:44;;;;;;;26.65;18.35;;;;;;;17.06;100.00;100164.63;5083806;28;20058;-75
2023/06/14 02:15:16;;;;;;;27.13;17.98;;;;;;;17.05;100.00;100160.19;5100503;28;20055;-75
2023/06/14 02:17:47;;;;;;;28.20;17.98;;;;;;;17.04;100.00;100161.31;5074083;28;20031;-75
2023/06/14 02:20:13;;;;;;;24.83;17.80;;;;;;;17.02;100.00;100169.28;5098754;28;20057;-75
2023/06/14 02:22:38;;;;;;;27.15;17.75;;;;;;;16.96;100.00;100163.03;5099310;28;20032;-75
2023/06/14 02:25:04;;;;;;;26.65;17.90;;;;;;;16.97;100.00;100149.88;5098146;28;20063;-75
2023/06/14 02:27:29;;;;;;;26.55;18.70;;;;;;;16.94;100.00;100161.78;5097962;28;20055;-75
2023/06/14 02:29:55;;;;;;;29.73;18.77;;;;;;;16.91;100.00;100156.84;5105292;28;20035;-75
2023/06/14 02:32:20;;;;;;;25.00;18.40;;;;;;;16.92;100.00;100158.50;5087069;28;20062;-75
2023/06/14 02:34:49;;;;;;;26.50;18.15;;;;;;;16.89;100.00;100153.56;5080374;28;20062;-75
2023/06/14 02:37:15;;;;;;;24.77;18.02;;;;;;;16.84;100.00;100154.59;5080491;28;20032;-75
2023/06/14 02:39:41;;;;;;;27.75;18.95;;;;;;;16.83;100.00;100155.78;5093021;28;20020;-75
2023/06/14 02:42:07;;;;;;;26.85;19.42;;;;;;;16.81;100.00;100152.50;5097865;28;20499;-75
2023/06/14 02:44:32;;;;;;;26.88;18.58;;;;;;;16.80;100.00;100150.88;5098086;28;20028;-75
2023/06/14 02:46:58;;;;;;;31.95;19.80;;;;;;;16.74;100.00;100153.03;5097926;28;20047;-75
2023/06/14 02:49:24;;;;;;;28.00;19.10;;;;;;;16.77;100.00;100156.31;5098399;28;20036;-75
2023/06/14 02:51:49;;;;;;;27.63;19.13;;;;;;;16.72;100.00;100155.34;5108698;28;20511;-75
2023/06/14 02:54:15;;;;;;;30.35;19.77;;;;;;;16.74;100.00;100157.78;5110311;28;20081;-75
2023/06/14 02:56:40;;;;;;;26.58;18.95;;;;;;;16.67;100.00;100161.16;5079424;28;20028;-75
2023/06/14 02:59:07;;;;;;;29.02;18.67;;;;;;;16.67;100.00;100157.53;5097888;28;20031;-75
2023/06/14 03:01:35;;;;;;;27.77;19.92;;;;;;;16.63;100.00;100153.78;5097809;28;20028;-75
2023/06/14 03:04:03;;;;;;;29.55;19.40;;;;;;;16.60;100.00;100149.66;5100847;28;20051;-75
2023/06/14 03:06:30;;;;;;;29.48;20.73;;;;;;;16.60;100.00;100146.88;5111323;28;20078;-75
2023/06/14 03:09:04;;;;;;;29.52;20.10;;;;;;;16.61;100.00;100153.31;5097881;28;20063;-75
2023/06/14 03:11:30;;;;;;;31.73;20.45;;;;;;;16.60;100.00;100158.09;5091783;28;20031;-75
2023/06/14 03:13:56;;;;;;;30.23;19.90;;;;;;;16.56;100.00;100157.13;5079744;28;20034;-75
2023/06/14 03:16:23;;;;;;;28.25;19.30;;;;;;;16.57;100.00;100157.97;5111196;28;20499;-75
2023/06/14 03:18:50;;;;;;;29.08;19.88;;;;;;;16.54;100.00;100159.47;5104260;28;20022;-75
2023/06/14 03:21:16;;;;;;;29.08;19.33;;;;;;;16.54;100.00;100156.66;5091465;28;20120;-75
2023/06/14 03:23:42;;;;;;;33.47;21.00;;;;;;;16.51;100.00;100162.94;5097762;28;20060;-75
2023/06/14 03:26:08;;;;;;;36.95;24.50;;;;;;;16.50;100.00;100152.91;5097232;28;20388;-75
2023/06/14 03:28:33;;;;;;;32.25;22.08;;;;;;;16.46;100.00;100163.16;5106242;28;20028;-75
2023/06/14 03:30:59;;;;;;;31.75;21.92;;;;;;;16.45;100.00;100162.34;5102108;28;20063;-75
2023/06/14 03:33:25;;;;;;;32.17;22.08;;;;;;;16.43;100.00;100158.22;5097555;28;20062;-75
2023/06/14 03:35:51;;;;;;;32.75;23.05;;;;;;;16.44;100.00;100151.47;5097483;28;20040;-75
2023/06/14 03:38:16;;;;;;;31.25;22.00;;;;;;;16.39;100.00;100166.50;5109255;28;20035;-75
2023/06/14 03:40:41;;;;;;;32.60;21.83;;;;;;;16.40;100.00;100164.53;5105558;28;20082;-75
2023/06/14 03:43:07;;;;;;;32.65;21.90;;;;;;;16.38;100.00;100172.44;5101678;28;20027;-75
2023/06/14 03:45:32;;;;;;;31.05;20.98;;;;;;;16.35;100.00;100173.94;5083402;28;20024;-75
2023/06/14 03:48:00;;;;;;;34.03;21.90;;;;;;;16.36;100.00;100175.59;5101549;28;20550;-75
2023/06/14 03:50:26;;;;;;;31.88;21.40;;;;;;;16.33;100.00;100178.28;5083579;28;20024;-75
2023/06/14 03:52:52;;;;;;;31.83;19.40;;;;;;;16.32;100.00;100171.81;5103072;28;20041;-75
2023/06/14 03:55:17;;;;;;;30.83;20.80;;;;;;;16.31;100.00;100179.41;5105089;28;20384;-75
2023/06/14 03:57:43;;;;;;;33.55;20.55;;;;;;;16.30;100.00;100177.78;5101278;28;20036;-75
2023/06/14 04:00:09;;;;;;;30.75;20.52;;;;;;;16.27;100.00;100183.25;5101367;28;20024;-75
2023/06/14 04:02:36;;;;;;;31.75;20.75;;;;;;;16.25;100.00;100179.97;5101218;28;20081;-75
2023/06/14 04:05:02;;;;;;;33.78;20.95;;;;;;;16.25;100.00;100186.41;5104845;28;20107;-75
2023/06/14 04:07:28;;;;;;;30.83;21.40;;;;;;;16.21;100.00;100182.63;5083047;28;20035;-75
2023/06/14 04:09:54;;;;;;;31.35;22.38;;;;;;;16.21;100.00;100185.41;5096592;28;20055;-75
2023/06/14 04:12:20;;;;;;;33.80;21.77;;;;;;;16.19;100.00;100190.56;5101107;28;20053;-75
2023/06/14 04:14:45;;;;;;;29.80;21.25;;;;;;;16.17;100.00;100190.06;5088070;28;20028;-75
2023/06/14 04:17:11;;;;;;;28.98;20.52;;;;;;;16.16;100.00;100199.66;5082901;28;20081;-75
2023/06/14 04:19:36;;;;;;;28.05;19.77;;;;;;;16.15;100.00;100191.56;5114264;28;20077;-75
2023/06/14 04:22:02;;;;;;;31.67;22.52;;;;;;;16.11;100.00;100185.84;5106763;28;20375;-75
2023/06/14 04:24:31;;;;;;;32.40;22.13;;;;;;;16.10;100.00;100189.78;5100916;28;20499;-75
2023/06/14 04:27:01;;;;;;;29.33;20.77;;;;;;;16.09;100.00;100204.94;5083226;28;20074;-75
2023/06/14 04:29:26;;;;;;;29.77;21.35;;;;;;;16.09;100.00;100199.34;5114105;28;20061;-75
2023/06/14 04:31:54;;;;;;;32.65;22.58;;;;;;;16.07;100.00;100196.91;5100776;28;20028;-75
2023/06/14 04:34:21;;;;;;;29.70;22.10;;;;;;;16.11;100.00;100202.63;5082677;28;20036;-75
2023/06/14 04:36:52;;;;;;;31.95;21.85;;;;;;;16.07;100.00;100201.66;5082748;28;20476;-75
2023/06/14 04:39:19;;;;;;;33.45;22.10;;;;;;;16.07;100.00;100210.91;5096756;28;20024;-75
2023/06/14 04:41:45;;;;;;;32.63;21.55;;;;;;;16.03;100.00;100209.13;5082245;28;20036;-75
2023/06/14 04:44:10;;;;;;;36.25;22.77;;;;;;;16.04;100.00;100208.75;5082440;28;20024;-75
2023/06/14 04:46:45;;;;;;;34.13;23.10;;;;;;;16.03;100.00;100214.72;5082213;28;20032;-75
2023/06/14 04:49:17;;;;;;;33.45;23.48;;;;;;;16.02;100.00;100219.50;5100586;28;20035;-75
2023/06/14 04:51:43;;;;;;;35.10;23.20;;;;;;;16.01;100.00;100215.03;5114278;28;20492;-75
2023/06/14 04:54:15;;;;;;;39.78;25.58;;;;;;;16.06;100.00;100217.66;5095801;28;20162;-74
2023/06/14 04:56:43;;;;;;;38.35;25.80;;;;;;;16.07;100.00;100224.91;5099825;28;20038;-75
2023/06/14 04:59:11;;;;;;;37.85;24.88;;;;;;;16.09;100.00;100228.19;5100234;28;20059;-75
2023/06/14 05:01:37;;;;;;;35.60;25.77;;;;;;;16.15;100.00;100226.00;5100023;28;20032;-75
2023/06/14 05:04:03;;;;;;;31.35;23.02;;;;;;;16.20;100.00;100225.81;5085547;28;20024;-75
2023/06/14 05:06:28;;;;;;;40.22;27.15;;;;;;;16.33;100.00;100220.31;5113307;28;20034;-75
2023/06/14 05:08:54;;;;;;;41.80;29.73;;;;;;;16.34;100.00;100227.53;5078637;28;20040;-75
2023/06/14 05:11:20;;;;;;;35.90;24.58;;;;;;;16.42;100.00;100232.28;5113029;28;20023;-75
2023/06/14 05:13:46;;;;;;;39.47;26.38;;;;;;;16.49;100.00;100233.38;5106813;28;20028;-75
2023/06/14 05:16:12;;;;;;;31.65;22.65;;;;;;;16.60;100.00;100230.16;5065391;28;20027;-75
2023/06/14 05:18:38;;;;;;;45.58;29.63;;;;;;;16.68;100.00;100232.88;5118349;28;20027;-75
2023/06/14 05:21:05;;;;;;;37.60;25.30;;;;;;;16.78;100.00;100234.50;5113579;28;20398;-75
2023/06/14 05:23:30;;;;;;;39.40;26.13;;;;;;;16.87;100.00;100229.63;5082021;28;20392;-75
2023/06/14 05:25:56;;;;;;;45.15;27.00;;;;;;;16.98;100.00;100225.25;5099339;28;20032;-75
2023/06/14 05:28:22;;;;;;;44.53;29.75;;;;;;;17.09;100.00;100225.63;5106914;28;20031;-75
2023/06/14 05:30:48;;;;;;;39.10;27.40;;;;;;;17.20;100.00;100232.47;5101494;28;20048;-75
2023/06/14 05:33:13;;;;;;;41.97;27.10;;;;;;;17.33;100.00;100238.13;5119971;28;20061;-75
2023/06/14 05:35:38;;;;;;;38.70;25.95;;;;;;;17.43;100.00;100234.88;5084742;28;20032;-75
2023/06/14 05:38:05;;;;;;;39.15;27.48;;;;;;;17.58;100.00;100237.03;5116850;28;20057;-75
2023/06/14 05:40:31;;;;;;;39.67;25.27;;;;;;;17.69;100.00;100242.16;5119347;28;20027;-75
2023/06/14 05:42:56;;;;;;;33.63;23.48;;;;;;;17.83;100.00;100243.53;5081247;28;20024;-75
2023/06/14 05:45:21;;;;;;;36.72;24.15;;;;;;;17.96;100.00;100249.13;5114059;28;20049;-75
2023/06/14 05:47:47;;;;;;;32.25;23.02;;;;;;;18.08;100.00;100249.97;5119482;28;20047;-75
2023/06/14 05:50:12;;;;;;;36.08;23.48;;;;;;;18.24;100.00;100247.25;5119632;28;20047;-75
2023/06/14 05:52:38;;;;;;;24.35;19.08;;;;;;;18.40;100.00;100249.38;5119464;28;20028;-75
2023/06/14 05:55:04;;;;;;;27.23;19.02;;;;;;;18.55;100.00;100251.44;5119486;28;20043;-75
2023/06/14 05:57:30;;;;;;;33.05;19.60;;;;;;;18.69;100.00;100256.69;5119044;28;20053;-75
2023/06/14 05:59:55;;;;;;;24.73;18.58;;;;;;;18.84;100.00;100247.53;5118863;28;20034;-75
2023/06/14 06:02:21;;;;;;;26.52;18.15;;;;;;;18.98;100.00;100247.97;5101309;28;20024;-75
2023/06/14 06:04:46;;;;;;;36.30;25.90;;;;;;;19.09;100.00;100247.47;5088189;28;20047;-75
2023/06/14 06:07:12;;;;;;;29.83;18.90;;;;;;;19.24;100.00;100246.69;5112578;28;20381;-75
2023/06/14 06:09:37;;;;;;;33.15;23.02;;;;;;;19.38;100.00;100254.72;5098798;28;20438;-75
2023/06/14 06:12:05;;;;;;;32.97;21.17;;;;;;;19.52;100.00;100255.09;5114328;28;20035;-75
2023/06/14 06:14:31;;;;;;;25.10;16.30;;;;;;;19.69;100.00;100261.59;5105998;28;20032;-75
2023/06/14 06:16:56;;;;;;;26.40;18.83;;;;;;;19.79;100.00;100261.91;5098610;28;20380;-75
2023/06/14 06:19:22;;;;;;;30.02;19.50;;;;;;;19.95;100.00;100258.28;5110062;28;20031;-75
2023/06/14 06:21:47;;;;;;;24.80;15.98;;;;;;;20.08;100.00;100262.63;5106273;28;20028;-75
2023/06/14 06:24:13;;;;;;;29.50;19.58;;;;;;;20.21;100.00;100258.53;5098788;28;20027;-75
2023/06/14 06:26:39;;;;;;;24.48;17.73;;;;;;;20.31;100.00;100263.59;5080042;28;20024;-75
2023/06/14 06:29:05;;;;;;;26.95;19.35;;;;;;;20.47;100.00;100269.19;5111892;28;20128;-75
2023/06/14 06:31:30;;;;;;;37.25;22.45;;;;;;;20.55;100.00;100264.59;5112127;28;20039;-75
2023/06/14 06:33:56;;;;;;;29.77;19.92;;;;;;;20.70;100.00;100268.56;5080300;28;20077;-75
2023/06/14 06:36:21;;;;;;;25.33;17.80;;;;;;;20.76;100.00;100272.72;5098423;28;20043;-75
2023/06/14 06:38:47;;;;;;;31.20;19.35;;;;;;;20.93;100.00;100274.31;5111705;28;20020;-75
2023/06/14 06:41:13;;;;;;;32.63;20.95;;;;;;;21.02;100.00;100272.09;5079924;28;20024;-75
2023/06/14 06:43:38;;;;;;;29.35;20.48;;;;;;;21.16;100.00;100268.75;5080212;28;20035;-75
2023/06/14 06:46:04;;;;;;;31.30;18.98;;;;;;;21.29;100.00;100269.41;5098001;28;20511;-75
2023/06/14 06:48:29;;;;;;;22.10;15.50;;;;;;;21.47;100.00;100270.59;5080027;28;20052;-75
2023/06/14 06:50:55;;;;;;;20.13;13.68;;;;;;;21.62;100.00;100272.53;5067864;28;20035;-76
2023/06/14 06:53:20;;;;;;;21.17;13.45;;;;;;;21.76;100.00;100265.50;5099983;28;20383;-75
2023/06/14 06:55:46;;;;;;;31.48;18.55;;;;;;;21.85;100.00;100272.53;5097715;28;20430;-75
2023/06/14 06:58:12;;;;;;;27.00;15.45;;;;;;;22.02;100.00;100278.88;5097918;28;20031;-76
2023/06/14 07:00:37;;;;;;;22.48;14.85;;;;;;;22.09;100.00;100270.50;5080075;28;20028;-76
2023/06/14 07:03:03;;;;;;;27.35;18.00;;;;;;;22.13;100.00;100270.59;5101196;28;20023;-75
2023/06/14 07:05:29;;;;;;;23.55;16.25;;;;;;;22.30;100.00;100276.56;5102834;28;20080;-75
2023/06/14 07:07:55;;;;;;;21.55;13.23;;;;;;;22.50;100.00;100280.09;5106358;28;20036;-76
2023/06/14 07:10:20;;;;;;;22.85;15.93;;;;;;;22.61;100.00;100282.28;5098920;28;20108;-76
2023/06/14 07:12:46;;;;;;;25.75;16.58;;;;;;;22.73;100.00;100274.38;5118176;28;20036;-76
2023/06/14 07:15:11;;;;;;;19.67;12.07;;;;;;;22.90;100.00;100281.50;5099410;28;20039;-76
2023/06/14 07:17:37;;;;;;;18.95;13.15;;;;;;;23.04;100.00;100288.56;5097955;28;20074;-76
2023/06/14 07:20:11;;;;;;;19.38;12.85;;;;;;;23.17;100.00;100285.09;5114667;28;20027;-76
2023/06/14 07:22:45;;;;;;;20.10;12.05;;;;;;;23.33;100.00;100284.91;5081729;28;20036;-76
2023/06/14 07:25:14;;;;;;;22.35;14.95;;;;;;;23.41;100.00;100289.47;5104871;28;20088;-76
2023/06/14 07:27:43;;;;;;;19.55;11.70;;;;;;;23.67;100.00;100289.72;5104425;28;20415;-76
2023/06/14 07:30:09;;;;;;;19.77;13.55;;;;;;;23.66;100.00;100294.59;5091782;28;20036;-76
2023/06/14 07:32:34;;;;;;;17.08;11.05;;;;;;;23.89;100.00;100294.44;5079597;28;20115;-76
2023/06/14 07:35:00;;;;;;;21.20;12.60;;;;;;;23.98;100.00;100294.13;5097966;28;20044;-76
2023/06/14 07:37:25;;;;;;;16.92;11.68;;;;;;;24.11;100.00;100286.97;5099030;28;20040;-76
2023/06/14 07:39:51;;;;;;;20.95;12.68;;;;;;;24.19;100.00;100291.50;5109515;28;20020;-76
2023/06/14 07:42:16;;;;;;;21.65;11.82;;;;;;;24.34;100.00;100288.75;5110848;28;20027;-76
2023/06/14 07:44:42;;;;;;;19.02;12.45;;;;;;;24.48;100.00;100294.59;5087442;28;20023;-76
2023/06/14 07:47:07;;;;;;;19.65;11.90;;;;;;;24.64;100.00;100297.13;5102039;28;20516;-76
2023/06/14 07:49:33;;;;;;;11.95;8.82;;;;;;;24.77;100.00;100294.75;5097449;28;20035;-76
2023/06/14 07:51:58;;;;;;;14.25;10.20;;;;;;;24.92;100.00;100299.34;5109236;28;20020;-76
2023/06/14 07:54:26;;;;;;;14.77;8.82;;;;;;;25.07;100.00;100294.53;5108968;28;20039;-76
2023/06/14 07:56:52;;;;;;;22.85;13.98;;;;;;;25.16;100.00;100295.84;5102488;28;20069;-76
2023/06/14 07:59:17;;;;;;;18.73;11.88;;;;;;;25.27;100.00;100295.06;5096962;28;20024;-76
2023/06/14 08:01:46;;;;;;;18.50;12.93;;;;;;;25.39;100.00;100304.06;5097202;28;20028;-76
2023/06/14 08:04:15;;;;;;;15.70;9.70;;;;;;;25.50;100.00;100306.13;5100872;28;20044;-76
2023/06/14 08:06:43;;;;;;;14.20;8.52;;;;;;;25.64;100.00;100312.66;5110791;28;20502;-76
2023/06/14 08:09:10;;;;;;;17.33;10.45;;;;;;;25.74;100.00;100302.56;5079136;28;20024;-76
2023/06/14 08:11:35;;;;;;;13.55;8.73;;;;;;;25.88;100.00;100309.50;5108766;28;20031;-76
2023/06/14 08:14:01;;;;;;;13.00;8.60;;;;;;;25.95;100.00;100313.19;5117578;28;20077;-76
2023/06/14 08:16:26;;;;;;;14.40;9.40;;;;;;;26.08;100.00;100302.22;5101532;28;20039;-76
2023/06/14 08:18:52;;;;;;;11.90;8.30;;;;;;;26.23;100.00;100312.38;5104432;28;20069;-76
2023/06/14 08:21:17;;;;;;;10.75;7.50;;;;;;;26.38;98.80;100307.50;5090743;28;20125;-76
2023/06/14 08:23:43;;;;;;;13.32;8.73;;;;;;;26.48;99.84;100311.56;5098460;28;20028;-77
2023/06/14 08:26:09;;;;;;;15.63;9.20;;;;;;;26.64;98.52;100311.19;5100529;28;20063;-77
2023/06/14 08:28:34;;;;;;;12.82;7.75;;;;;;;26.80;96.05;100308.72;5091633;28;20054;-77
2023/06/14 08:31:00;;;;;;;13.93;7.90;;;;;;;26.91;96.09;100312.38;5100379;28;20028;-77
2023/06/14 08:33:25;;;;;;;12.02;7.78;;;;;;;27.04;95.72;100320.47;5109093;28;20459;-76
2023/06/14 08:35:51;;;;;;;12.38;7.88;;;;;;;27.11;95.50;100309.06;5104811;28;20036;-76
2023/06/14 08:38:16;;;;;;;18.83;9.73;;;;;;;27.25;96.32;100320.44;5103148;28;20051;-76
2023/06/14 08:40:42;;;;;;;16.20;10.50;;;;;;;27.37;94.46;100314.25;5116304;28;20038;-76
2023/06/14 08:43:07;;;;;;;12.95;7.43;;;;;;;27.67;90.49;100312.91;5093537;28;20111;-76
2023/06/14 08:45:33;;;;;;;19.13;10.27;;;;;;;27.71;90.37;100312.88;5082403;28;20028;-76
2023/06/14 08:47:59;;;;;;;13.75;8.38;;;;;;;27.81;90.84;100312.84;5082218;28;20543;-76
2023/06/14 08:50:31;;;;;;;18.50;9.98;;;;;;;27.96;88.79;100315.63;5082406;28;20056;-76
2023/06/14 08:53:02;;;;;;;14.10;9.48;;;;;;;28.07;86.47;100314.31;5082814;28;20032;-76
2023/06/14 08:55:28;;;;;;;18.13;9.73;;;;;;;28.18;86.65;100313.41;5112541;28;20103;-76
2023/06/14 08:57:57;;;;;;;14.20;9.55;;;;;;;28.34;86.86;100310.03;5089732;28;20482;-76
2023/06/14 09:00:24;;;;;;;14.30;7.60;;;;;;;28.55;85.40;100318.44;5100253;28;20032;-76
2023/06/14 09:02:50;;;;;;;15.65;8.55;;;;;;;28.70;83.71;100308.50;5083801;28;20079;-76
2023/06/14 09:05:18;;;;;;;13.95;7.57;;;;;;;28.82;82.15;100312.06;5069502;28;20445;-76
2023/06/14 09:07:44;;;;;;;12.32;7.30;;;;;;;28.99;81.71;100318.81;5110313;28;20426;-76
2023/06/14 09:10:11;;;;;;;13.88;8.05;;;;;;;29.08;79.78;100314.25;5081670;28;20028;-76
2023/06/14 09:12:36;;;;;;;14.07;8.48;;;;;;;29.09;77.09;100315.88;5107498;28;20062;-76
2023/06/14 09:15:05;;;;;;;15.98;8.65;;;;;;;29.26;77.61;100318.97;5113351;28;20113;-77
2023/06/14 09:17:37;;;;;;;12.25;8.05;;;;;;;29.41;76.81;100320.38;5082509;28;20032;-77
2023/06/14 09:20:10;;;;;;;12.02;7.45;;;;;;;29.56;76.03;100315.28;5098848;28;20074;-76
2023/06/14 09:22:37;;;;;;;15.75;8.00;;;;;;;29.67;75.47;100320.88;5100825;28;20480;-77
2023/06/14 09:25:02;;;;;;;13.38;6.95;;;;;;;29.80;75.67;100319.06;5105679;28;20111;-77
2023/06/14 09:27:28;;;;;;;21.70;8.63;;;;;;;29.94;75.88;100316.00;5088688;28;20492;-77
2023/06/14 09:29:54;;;;;;;16.70;8.05;;;;;;;30.04;72.68;100311.38;5110678;28;20081;-76
2023/06/14 09:32:20;;;;;;;16.58;8.32;;;;;;;30.08;73.07;100311.31;5102557;28;20507;-76
2023/06/14 09:34:46;;;;;;;14.50;8.05;;;;;;;30.19;71.88;100314.81;5109051;28;20039;-77
2023/06/14 09:37:11;;;;;;;14.73;8.55;;;;;;;30.27;71.46;100322.88;5090844;28;20043;-77
2023/06/14 09:39:50;;;;;;;12.02;7.68;;;;;;;30.41;67.73;100316.09;5081299;28;20127;-77
2023/06/14 09:42:23;;;;;;;18.13;9.27;;;;;;;30.48;70.29;100318.06;5099033;28;20028;-77
2023/06/14 09:44:48;;;;;;;15.57;8.13;;;;;;;30.62;66.78;100322.69;5082050;28;20039;-77
2023/06/14 09:47:17;;;;;;;15.98;7.95;;;;;;;30.66;63.92;100321.41;5099048;28;20048;-77
2023/06/14 09:49:43;;;;;;;15.68;7.65;;;;;;;30.78;65.17;100319.94;5080986;28;20107;-77
2023/06/14 09:52:16;;;;;;;10.85;7.30;;;;;;;30.90;65.38;100322.22;5097609;28;20078;-77
2023/06/14 09:54:43;;;;;;;13.80;8.10;;;;;;;31.00;64.18;100325.31;5091167;28;20066;-77
2023/06/14 09:57:13;;;;;;;14.73;8.00;;;;;;;31.04;63.00;100326.06;5080652;28;20032;-77
2023/06/14 09:59:43;;;;;;;15.77;7.93;;;;;;;31.21;63.00;100322.03;5099164;28;20097;-77
2023/06/14 10:02:33;;;;;;;13.00;7.40;;;;;;;31.34;64.31;100323.00;5098919;28;20048;-77
2023/06/14 10:05:06;;;;;;;12.15;7.85;;;;;;;31.44;60.92;100326.09;5085306;28;20036;-77
2023/06/14 10:08:04;;;;;;;12.98;7.15;;;;;;;31.55;59.15;100332.44;5076571;28;20030;-77
2023/06/14 10:10:30;;;;;;;11.73;7.65;;;;;;;31.59;57.14;100338.88;5080660;28;20047;-76
2023/06/14 10:12:56;;;;;;;11.57;7.55;;;;;;;31.70;56.58;100332.91;5101343;28;20085;-77
2023/06/14 10:15:32;;;;;;;14.30;7.85;;;;;;;31.81;56.07;100333.47;5099326;28;20073;-77
2023/06/14 10:18:20;;;;;;;17.00;8.00;;;;;;;31.92;54.62;100336.13;5064903;28;20031;-77
2023/06/14 10:20:55;;;;;;;13.35;7.57;;;;;;;32.01;54.62;100337.16;5105562;28;20080;-77
2023/06/14 10:23:22;;;;;;;12.52;7.43;;;;;;;32.04;55.37;100344.06;5081006;28;20036;-77
2023/06/14 10:25:54;;;;;;;15.25;7.22;;;;;;;32.12;54.11;100342.63;5098108;28;20104;-77
2023/06/14 10:28:22;;;;;;;12.13;7.88;;;;;;;32.24;54.95;100338.25;5100838;28;20024;-77
2023/06/14 10:31:06;;;;;;;11.45;7.53;;;;;;;32.28;54.04;100336.09;5104823;28;20032;-76
2023/06/14 10:33:36;;;;;;;11.95;6.60;;;;;;;32.42;55.44;100341.50;5080908;28;20032;-76
2023/06/14 10:36:34;;;;;;;13.50;6.90;;;;;;;32.60;55.46;100337.41;5080023;28;20032;-77
2023/06/14 10:39:04;;;;;;;10.88;6.65;;;;;;;32.69;55.34;100341.25;5098190;28;20035;-77
2023/06/14 10:41:29;;;;;;;12.82;7.05;;;;;;;32.82;54.36;100340.50;5097508;28;20456;-76
2023/06/14 10:44:13;;;;;;;11.20;6.68;;;;;;;32.98;55.05;100342.53;5106225;28;20039;-76
2023/06/14 10:46:40;;;;;;;11.13;7.03;;;;;;;33.08;55.42;100330.78;5114946;28;20035;-77
2023/06/14 10:49:06;;;;;;;13.73;7.35;;;;;;;33.11;49.50;100332.75;5097931;28;20050;-76
2023/06/14 10:51:45;;;;;;;13.02;7.15;;;;;;;33.20;48.58;100334.16;5115515;28;20047;-76
2023/06/14 10:54:12;;;;;;;11.80;7.28;;;;;;;33.23;46.93;100325.41;5118132;28;20042;-76
2023/06/14 10:56:37;;;;;;;12.90;6.70;;;;;;;33.33;48.00;100330.06;5099438;28;20031;-76
2023/06/14 10:59:03;;;;;;;12.93;6.40;;;;;;;33.52;49.66;100316.78;5112356;28;20028;-77
2023/06/14 11:02:11;;;;;;;8.35;6.28;;;;;;;33.70;48.93;100316.22;5113829;28;20390;-76
2023/06/14 11:04:52;;;;;;;11.18;6.88;;;;;;;33.84;49.25;100314.97;5018212;28;20082;-76